sensor_id;sensor_type;location;lat;lon;timestamp;P1;durP1;ratioP1;P2;durP2;ratioP2
75400;SDS011;63974;47.538;18.972;2023-04-19T00:02:33;5.15;;;2.55;;
75400;SDS011;63974;47.538;18.972;2023-04-19T00:05:37;4.57;;;2.35;;
75400;SDS011;63974;47.538;18.972;2023-04-19T00:08:40;4.13;;;2.37;;
75400;SDS011;63974;47.538;18.972;2023-04-19T00:11:43;6.32;;;2.45;;
75400;SDS011;63974;47.538;18.972;2023-04-19T00:14:47;4.28;;;2.50;;
75400;SDS011;63974;47.538;18.972;2023-04-19T00:17:49;4.50;;;1.90;;
75400;SDS011;63974;47.538;18.972;2023-04-19T00:20:52;4.85;;;2.65;;
75400;SDS011;63974;47.538;18.972;2023-04-19T00:23:55;4.53;;;2.60;;
75400;SDS011;63974;47.538;18.972;2023-04-19T00:26:58;5.25;;;2.85;;
75400;SDS011;63974;47.538;18.972;2023-04-19T00:30:01;3.63;;;2.25;;
75400;SDS011;63974;47.538;18.972;2023-04-19T00:33:05;4.43;;;2.15;;
75400;SDS011;63974;47.538;18.972;2023-04-19T00:36:14;4.57;;;2.05;;
75400;SDS011;63974;47.538;18.972;2023-04-19T00:39:17;5.47;;;2.27;;
75400;SDS011;63974;47.538;18.972;2023-04-19T00:42:20;3.83;;;2.33;;
75400;SDS011;63974;47.538;18.972;2023-04-19T00:45:24;5.00;;;2.50;;
75400;SDS011;63974;47.538;18.972;2023-04-19T00:48:27;7.03;;;2.38;;
75400;SDS011;63974;47.538;18.972;2023-04-19T00:51:32;2.85;;;1.95;;
75400;SDS011;63974;47.538;18.972;2023-04-19T00:54:35;5.63;;;2.80;;
75400;SDS011;63974;47.538;18.972;2023-04-19T00:57:39;5.55;;;2.50;;
75400;SDS011;63974;47.538;18.972;2023-04-19T01:00:43;4.95;;;1.92;;
75400;SDS011;63974;47.538;18.972;2023-04-19T01:03:46;4.53;;;2.03;;
75400;SDS011;63974;47.538;18.972;2023-04-19T01:06:49;8.48;;;2.55;;
75400;SDS011;63974;47.538;18.972;2023-04-19T01:09:52;5.63;;;2.70;;
75400;SDS011;63974;47.538;18.972;2023-04-19T01:12:56;5.13;;;2.70;;
75400;SDS011;63974;47.538;18.972;2023-04-19T01:15:59;5.63;;;2.50;;
75400;SDS011;63974;47.538;18.972;2023-04-19T01:19:02;3.53;;;2.00;;
75400;SDS011;63974;47.538;18.972;2023-04-19T01:22:05;4.82;;;2.17;;
75400;SDS011;63974;47.538;18.972;2023-04-19T01:25:10;6.67;;;2.30;;
75400;SDS011;63974;47.538;18.972;2023-04-19T01:28:16;8.70;;;2.63;;
75400;SDS011;63974;47.538;18.972;2023-04-19T01:31:19;5.82;;;2.97;;
75400;SDS011;63974;47.538;18.972;2023-04-19T01:34:22;5.07;;;2.50;;
75400;SDS011;63974;47.538;18.972;2023-04-19T01:37:25;8.60;;;2.63;;
75400;SDS011;63974;47.538;18.972;2023-04-19T01:40:28;4.23;;;2.40;;
75400;SDS011;63974;47.538;18.972;2023-04-19T01:43:32;4.63;;;2.40;;
75400;SDS011;63974;47.538;18.972;2023-04-19T01:46:34;4.00;;;2.58;;
75400;SDS011;63974;47.538;18.972;2023-04-19T01:49:41;7.45;;;2.33;;
75400;SDS011;63974;47.538;18.972;2023-04-19T01:52:44;4.90;;;1.85;;
75400;SDS011;63974;47.538;18.972;2023-04-19T01:55:47;5.17;;;1.90;;
75400;SDS011;63974;47.538;18.972;2023-04-19T01:58:50;4.28;;;2.22;;
75400;SDS011;63974;47.538;18.972;2023-04-19T02:01:52;6.55;;;2.60;;
75400;SDS011;63974;47.538;18.972;2023-04-19T02:04:56;6.65;;;2.08;;
75400;SDS011;63974;47.538;18.972;2023-04-19T02:07:59;3.65;;;2.40;;
75400;SDS011;63974;47.538;18.972;2023-04-19T02:11:06;7.00;;;2.33;;
75400;SDS011;63974;47.538;18.972;2023-04-19T02:14:10;5.20;;;2.30;;
75400;SDS011;63974;47.538;18.972;2023-04-19T02:17:13;5.03;;;2.63;;
75400;SDS011;63974;47.538;18.972;2023-04-19T02:20:16;8.27;;;2.70;;
75400;SDS011;63974;47.538;18.972;2023-04-19T02:23:18;5.30;;;3.38;;
75400;SDS011;63974;47.538;18.972;2023-04-19T02:26:21;4.00;;;2.50;;
75400;SDS011;63974;47.538;18.972;2023-04-19T02:29:25;5.32;;;2.90;;
75400;SDS011;63974;47.538;18.972;2023-04-19T02:32:29;6.35;;;2.83;;
75400;SDS011;63974;47.538;18.972;2023-04-19T02:35:32;5.18;;;2.78;;
75400;SDS011;63974;47.538;18.972;2023-04-19T02:38:35;4.93;;;2.20;;
75400;SDS011;63974;47.538;18.972;2023-04-19T02:41:38;5.37;;;2.20;;
75400;SDS011;63974;47.538;18.972;2023-04-19T02:44:41;3.92;;;2.30;;
75400;SDS011;63974;47.538;18.972;2023-04-19T02:47:43;4.93;;;2.42;;
75400;SDS011;63974;47.538;18.972;2023-04-19T02:50:48;3.83;;;2.22;;
75400;SDS011;63974;47.538;18.972;2023-04-19T02:53:51;4.93;;;2.45;;
75400;SDS011;63974;47.538;18.972;2023-04-19T02:56:54;7.97;;;2.60;;
75400;SDS011;63974;47.538;18.972;2023-04-19T02:59:59;3.35;;;2.13;;
75400;SDS011;63974;47.538;18.972;2023-04-19T03:03:02;6.63;;;2.63;;
75400;SDS011;63974;47.538;18.972;2023-04-19T03:06:08;4.50;;;2.00;;
75400;SDS011;63974;47.538;18.972;2023-04-19T03:09:11;5.35;;;2.15;;
75400;SDS011;63974;47.538;18.972;2023-04-19T03:12:15;6.63;;;3.40;;
75400;SDS011;63974;47.538;18.972;2023-04-19T03:15:26;7.90;;;4.07;;
75400;SDS011;63974;47.538;18.972;2023-04-19T03:18:29;8.60;;;4.00;;
75400;SDS011;63974;47.538;18.972;2023-04-19T03:21:32;9.00;;;4.32;;
75400;SDS011;63974;47.538;18.972;2023-04-19T03:24:36;7.30;;;4.00;;
75400;SDS011;63974;47.538;18.972;2023-04-19T03:27:59;8.77;;;3.40;;
75400;SDS011;63974;47.538;18.972;2023-04-19T03:31:22;7.88;;;3.88;;
75400;SDS011;63974;47.538;18.972;2023-04-19T03:34:27;6.82;;;3.63;;
75400;SDS011;63974;47.538;18.972;2023-04-19T03:37:30;8.55;;;4.40;;
75400;SDS011;63974;47.538;18.972;2023-04-19T03:40:35;8.48;;;4.47;;
75400;SDS011;63974;47.538;18.972;2023-04-19T03:43:41;6.17;;;3.10;;
75400;SDS011;63974;47.538;18.972;2023-04-19T03:46:43;7.15;;;2.85;;
75400;SDS011;63974;47.538;18.972;2023-04-19T03:49:50;7.15;;;2.75;;
75400;SDS011;63974;47.538;18.972;2023-04-19T03:52:53;5.28;;;2.15;;
75400;SDS011;63974;47.538;18.972;2023-04-19T03:55:56;5.10;;;2.42;;
75400;SDS011;63974;47.538;18.972;2023-04-19T03:58:59;4.90;;;2.87;;
75400;SDS011;63974;47.538;18.972;2023-04-19T04:02:04;6.57;;;3.00;;
75400;SDS011;63974;47.538;18.972;2023-04-19T04:05:08;6.75;;;3.30;;
75400;SDS011;63974;47.538;18.972;2023-04-19T04:08:11;6.38;;;2.90;;
75400;SDS011;63974;47.538;18.972;2023-04-19T04:11:15;8.15;;;3.60;;
75400;SDS011;63974;47.538;18.972;2023-04-19T04:14:22;7.63;;;3.70;;
75400;SDS011;63974;47.538;18.972;2023-04-19T04:17:28;6.20;;;3.05;;
75400;SDS011;63974;47.538;18.972;2023-04-19T04:20:31;5.90;;;3.50;;
75400;SDS011;63974;47.538;18.972;2023-04-19T04:23:40;9.15;;;4.20;;
75400;SDS011;63974;47.538;18.972;2023-04-19T04:26:49;8.68;;;3.47;;
75400;SDS011;63974;47.538;18.972;2023-04-19T04:30:03;6.53;;;3.83;;
75400;SDS011;63974;47.538;18.972;2023-04-19T04:33:06;7.60;;;3.55;;
75400;SDS011;63974;47.538;18.972;2023-04-19T04:36:10;5.47;;;3.13;;
75400;SDS011;63974;47.538;18.972;2023-04-19T04:39:14;8.63;;;3.90;;
75400;SDS011;63974;47.538;18.972;2023-04-19T04:42:17;7.65;;;3.55;;
75400;SDS011;63974;47.538;18.972;2023-04-19T04:45:22;9.53;;;4.03;;
75400;SDS011;63974;47.538;18.972;2023-04-19T04:48:25;6.63;;;3.58;;
75400;SDS011;63974;47.538;18.972;2023-04-19T04:51:28;6.82;;;3.95;;
75400;SDS011;63974;47.538;18.972;2023-04-19T04:54:32;8.63;;;4.00;;
75400;SDS011;63974;47.538;18.972;2023-04-19T04:57:35;7.95;;;3.45;;
75400;SDS011;63974;47.538;18.972;2023-04-19T05:00:40;7.70;;;3.77;;
75400;SDS011;63974;47.538;18.972;2023-04-19T05:03:44;8.57;;;4.07;;
75400;SDS011;63974;47.538;18.972;2023-04-19T05:06:52;7.20;;;3.72;;
75400;SDS011;63974;47.538;18.972;2023-04-19T05:09:59;8.30;;;3.60;;
75400;SDS011;63974;47.538;18.972;2023-04-19T05:13:08;7.97;;;4.00;;
75400;SDS011;63974;47.538;18.972;2023-04-19T05:16:12;11.23;;;4.03;;
75400;SDS011;63974;47.538;18.972;2023-04-19T05:19:19;9.90;;;4.00;;
75400;SDS011;63974;47.538;18.972;2023-04-19T05:22:28;9.60;;;3.83;;
75400;SDS011;63974;47.538;18.972;2023-04-19T05:25:32;9.57;;;3.85;;
75400;SDS011;63974;47.538;18.972;2023-04-19T05:28:35;9.65;;;4.32;;
75400;SDS011;63974;47.538;18.972;2023-04-19T05:31:46;8.47;;;4.10;;
75400;SDS011;63974;47.538;18.972;2023-04-19T05:34:57;6.78;;;3.75;;
75400;SDS011;63974;47.538;18.972;2023-04-19T05:38:00;9.00;;;4.20;;
75400;SDS011;63974;47.538;18.972;2023-04-19T05:41:04;11.10;;;4.18;;
75400;SDS011;63974;47.538;18.972;2023-04-19T05:44:07;10.30;;;4.38;;
75400;SDS011;63974;47.538;18.972;2023-04-19T05:47:10;7.47;;;4.00;;
75400;SDS011;63974;47.538;18.972;2023-04-19T05:50:46;8.57;;;4.53;;
75400;SDS011;63974;47.538;18.972;2023-04-19T05:54:03;11.02;;;5.25;;
75400;SDS011;63974;47.538;18.972;2023-04-19T05:57:06;7.28;;;4.45;;
75400;SDS011;63974;47.538;18.972;2023-04-19T06:00:09;8.45;;;4.28;;
75400;SDS011;63974;47.538;18.972;2023-04-19T06:03:23;9.73;;;4.40;;
75400;SDS011;63974;47.538;18.972;2023-04-19T06:06:32;6.85;;;4.30;;
75400;SDS011;63974;47.538;18.972;2023-04-19T06:09:35;7.72;;;4.45;;
75400;SDS011;63974;47.538;18.972;2023-04-19T06:12:38;6.95;;;4.38;;
75400;SDS011;63974;47.538;18.972;2023-04-19T06:15:41;8.20;;;3.92;;
75400;SDS011;63974;47.538;18.972;2023-04-19T06:18:44;7.30;;;4.77;;
75400;SDS011;63974;47.538;18.972;2023-04-19T06:21:47;8.40;;;4.30;;
75400;SDS011;63974;47.538;18.972;2023-04-19T06:24:50;8.60;;;4.30;;
75400;SDS011;63974;47.538;18.972;2023-04-19T06:27:53;9.38;;;4.20;;
75400;SDS011;63974;47.538;18.972;2023-04-19T06:30:56;7.85;;;3.50;;
75400;SDS011;63974;47.538;18.972;2023-04-19T06:34:00;7.33;;;4.37;;
75400;SDS011;63974;47.538;18.972;2023-04-19T06:37:03;8.10;;;3.72;;
75400;SDS011;63974;47.538;18.972;2023-04-19T06:40:06;8.85;;;4.18;;
75400;SDS011;63974;47.538;18.972;2023-04-19T06:43:09;6.32;;;4.30;;
75400;SDS011;63974;47.538;18.972;2023-04-19T06:46:12;7.80;;;4.53;;
75400;SDS011;63974;47.538;18.972;2023-04-19T06:49:15;8.00;;;4.37;;
75400;SDS011;63974;47.538;18.972;2023-04-19T06:52:18;10.32;;;4.18;;
75400;SDS011;63974;47.538;18.972;2023-04-19T06:55:21;7.72;;;4.68;;
75400;SDS011;63974;47.538;18.972;2023-04-19T06:58:25;6.20;;;3.83;;
75400;SDS011;63974;47.538;18.972;2023-04-19T07:01:28;7.55;;;3.97;;
75400;SDS011;63974;47.538;18.972;2023-04-19T07:04:31;8.23;;;4.60;;
75400;SDS011;63974;47.538;18.972;2023-04-19T07:07:34;7.97;;;4.47;;
75400;SDS011;63974;47.538;18.972;2023-04-19T07:10:39;6.28;;;3.53;;
75400;SDS011;63974;47.538;18.972;2023-04-19T07:13:44;6.93;;;3.67;;
75400;SDS011;63974;47.538;18.972;2023-04-19T07:16:47;8.60;;;3.97;;
75400;SDS011;63974;47.538;18.972;2023-04-19T07:19:52;7.83;;;4.17;;
75400;SDS011;63974;47.538;18.972;2023-04-19T07:22:56;6.68;;;3.50;;
75400;SDS011;63974;47.538;18.972;2023-04-19T07:26:00;8.48;;;4.10;;
75400;SDS011;63974;47.538;18.972;2023-04-19T07:29:03;7.95;;;4.28;;
75400;SDS011;63974;47.538;18.972;2023-04-19T07:32:06;9.32;;;4.88;;
75400;SDS011;63974;47.538;18.972;2023-04-19T07:35:09;7.57;;;4.50;;
75400;SDS011;63974;47.538;18.972;2023-04-19T07:38:12;7.43;;;4.15;;
75400;SDS011;63974;47.538;18.972;2023-04-19T07:41:15;6.88;;;4.07;;
75400;SDS011;63974;47.538;18.972;2023-04-19T07:44:22;6.18;;;3.75;;
75400;SDS011;63974;47.538;18.972;2023-04-19T07:47:26;6.55;;;3.85;;
75400;SDS011;63974;47.538;18.972;2023-04-19T07:50:29;5.73;;;4.17;;
75400;SDS011;63974;47.538;18.972;2023-04-19T07:53:32;7.55;;;3.90;;
75400;SDS011;63974;47.538;18.972;2023-04-19T07:56:35;6.95;;;4.00;;
75400;SDS011;63974;47.538;18.972;2023-04-19T07:59:38;5.28;;;3.55;;
75400;SDS011;63974;47.538;18.972;2023-04-19T08:02:41;8.43;;;3.40;;
75400;SDS011;63974;47.538;18.972;2023-04-19T08:05:48;6.50;;;3.90;;
75400;SDS011;63974;47.538;18.972;2023-04-19T08:08:51;5.38;;;3.67;;
75400;SDS011;63974;47.538;18.972;2023-04-19T08:11:54;8.02;;;3.75;;
75400;SDS011;63974;47.538;18.972;2023-04-19T08:14:59;7.18;;;3.95;;
75400;SDS011;63974;47.538;18.972;2023-04-19T08:18:21;7.38;;;4.10;;
75400;SDS011;63974;47.538;18.972;2023-04-19T08:21:24;6.13;;;4.40;;
75400;SDS011;63974;47.538;18.972;2023-04-19T08:24:42;7.45;;;4.28;;
75400;SDS011;63974;47.538;18.972;2023-04-19T08:27:45;6.10;;;3.80;;
75400;SDS011;63974;47.538;18.972;2023-04-19T08:30:48;6.45;;;4.25;;
75400;SDS011;63974;47.538;18.972;2023-04-19T08:33:51;6.30;;;4.00;;
75400;SDS011;63974;47.538;18.972;2023-04-19T08:36:54;7.23;;;4.10;;
75400;SDS011;63974;47.538;18.972;2023-04-19T08:40:06;7.80;;;4.55;;
75400;SDS011;63974;47.538;18.972;2023-04-19T08:43:09;7.28;;;3.60;;
75400;SDS011;63974;47.538;18.972;2023-04-19T08:46:12;6.95;;;4.00;;
75400;SDS011;63974;47.538;18.972;2023-04-19T08:49:15;6.60;;;3.67;;
75400;SDS011;63974;47.538;18.972;2023-04-19T08:52:21;6.47;;;4.00;;
75400;SDS011;63974;47.538;18.972;2023-04-19T08:55:28;5.80;;;3.40;;
75400;SDS011;63974;47.538;18.972;2023-04-19T08:58:31;6.15;;;3.85;;
75400;SDS011;63974;47.538;18.972;2023-04-19T09:01:37;5.65;;;3.55;;
75400;SDS011;63974;47.538;18.972;2023-04-19T09:04:41;7.18;;;4.45;;
75400;SDS011;63974;47.538;18.972;2023-04-19T09:07:45;6.07;;;3.50;;
75400;SDS011;63974;47.538;18.972;2023-04-19T09:10:51;9.32;;;3.78;;
75400;SDS011;63974;47.538;18.972;2023-04-19T09:14:06;5.95;;;3.55;;
75400;SDS011;63974;47.538;18.972;2023-04-19T09:17:12;6.78;;;3.90;;
75400;SDS011;63974;47.538;18.972;2023-04-19T09:20:18;5.72;;;3.38;;
75400;SDS011;63974;47.538;18.972;2023-04-19T09:23:46;6.30;;;3.90;;
75400;SDS011;63974;47.538;18.972;2023-04-19T09:26:53;6.18;;;3.47;;
75400;SDS011;63974;47.538;18.972;2023-04-19T09:30:00;5.07;;;3.47;;
75400;SDS011;63974;47.538;18.972;2023-04-19T09:33:05;5.07;;;3.72;;
75400;SDS011;63974;47.538;18.972;2023-04-19T09:36:25;5.72;;;3.47;;
75400;SDS011;63974;47.538;18.972;2023-04-19T09:39:32;5.33;;;3.43;;
75400;SDS011;63974;47.538;18.972;2023-04-19T09:42:44;7.15;;;4.28;;
75400;SDS011;63974;47.538;18.972;2023-04-19T09:45:50;5.65;;;3.30;;
75400;SDS011;63974;47.538;18.972;2023-04-19T09:48:54;5.95;;;4.10;;
75400;SDS011;63974;47.538;18.972;2023-04-19T09:51:59;5.63;;;3.03;;
75400;SDS011;63974;47.538;18.972;2023-04-19T09:55:03;4.93;;;3.37;;
75400;SDS011;63974;47.538;18.972;2023-04-19T09:58:23;6.60;;;3.88;;
75400;SDS011;63974;47.538;18.972;2023-04-19T10:01:42;7.05;;;3.75;;
75400;SDS011;63974;47.538;18.972;2023-04-19T10:04:47;4.78;;;2.95;;
75400;SDS011;63974;47.538;18.972;2023-04-19T10:08:10;5.53;;;3.47;;
75400;SDS011;63974;47.538;18.972;2023-04-19T10:11:15;6.03;;;3.60;;
75400;SDS011;63974;47.538;18.972;2023-04-19T10:14:20;5.28;;;3.42;;
75400;SDS011;63974;47.538;18.972;2023-04-19T10:17:26;5.90;;;3.20;;
75400;SDS011;63974;47.538;18.972;2023-04-19T10:20:30;4.78;;;3.40;;
75400;SDS011;63974;47.538;18.972;2023-04-19T10:23:38;4.90;;;3.58;;
75400;SDS011;63974;47.538;18.972;2023-04-19T10:30:18;5.97;;;3.40;;
75400;SDS011;63974;47.538;18.972;2023-04-19T10:33:25;3.83;;;2.70;;
75400;SDS011;63974;47.538;18.972;2023-04-19T10:36:29;5.53;;;3.30;;
75400;SDS011;63974;47.538;18.972;2023-04-19T10:39:39;3.40;;;2.97;;
75400;SDS011;63974;47.538;18.972;2023-04-19T10:46:15;6.88;;;3.58;;
75400;SDS011;63974;47.538;18.972;2023-04-19T10:49:47;4.07;;;3.47;;
75400;SDS011;63974;47.538;18.972;2023-04-19T10:52:52;4.93;;;4.05;;
75400;SDS011;63974;47.538;18.972;2023-04-19T10:55:55;5.18;;;3.00;;
75400;SDS011;63974;47.538;18.972;2023-04-19T11:02:03;4.45;;;3.15;;
75400;SDS011;63974;47.538;18.972;2023-04-19T11:05:26;3.05;;;2.75;;
75400;SDS011;63974;47.538;18.972;2023-04-19T11:08:29;4.50;;;2.97;;
75400;SDS011;63974;47.538;18.972;2023-04-19T11:11:35;4.32;;;2.92;;
75400;SDS011;63974;47.538;18.972;2023-04-19T11:17:44;5.93;;;3.40;;
75400;SDS011;63974;47.538;18.972;2023-04-19T11:21:13;4.85;;;3.15;;
75400;SDS011;63974;47.538;18.972;2023-04-19T11:24:16;6.10;;;3.33;;
75400;SDS011;63974;47.538;18.972;2023-04-19T11:27:20;4.10;;;2.78;;
75400;SDS011;63974;47.538;18.972;2023-04-19T11:30:29;5.70;;;3.13;;
75400;SDS011;63974;47.538;18.972;2023-04-19T11:33:32;6.82;;;3.00;;
75400;SDS011;63974;47.538;18.972;2023-04-19T11:36:45;4.70;;;3.08;;
75400;SDS011;63974;47.538;18.972;2023-04-19T11:39:49;4.43;;;3.10;;
75400;SDS011;63974;47.538;18.972;2023-04-19T11:42:55;6.88;;;3.30;;
75400;SDS011;63974;47.538;18.972;2023-04-19T11:46:05;5.87;;;3.27;;
75400;SDS011;63974;47.538;18.972;2023-04-19T11:49:23;3.85;;;2.95;;
75400;SDS011;63974;47.538;18.972;2023-04-19T11:52:28;5.80;;;3.55;;
75400;SDS011;63974;47.538;18.972;2023-04-19T11:55:31;5.15;;;3.17;;
75400;SDS011;63974;47.538;18.972;2023-04-19T11:58:38;6.40;;;4.15;;
75400;SDS011;63974;47.538;18.972;2023-04-19T12:01:46;6.30;;;3.70;;
75400;SDS011;63974;47.538;18.972;2023-04-19T12:04:49;5.03;;;3.50;;
75400;SDS011;63974;47.538;18.972;2023-04-19T12:08:03;6.55;;;3.50;;
75400;SDS011;63974;47.538;18.972;2023-04-19T12:11:08;7.43;;;3.78;;
75400;SDS011;63974;47.538;18.972;2023-04-19T12:14:11;5.05;;;3.58;;
75400;SDS011;63974;47.538;18.972;2023-04-19T12:17:16;5.43;;;3.87;;
75400;SDS011;63974;47.538;18.972;2023-04-19T12:20:30;5.55;;;3.40;;
75400;SDS011;63974;47.538;18.972;2023-04-19T12:23:36;4.82;;;3.72;;
75400;SDS011;63974;47.538;18.972;2023-04-19T12:26:52;4.97;;;3.60;;
75400;SDS011;63974;47.538;18.972;2023-04-19T12:29:59;5.60;;;3.13;;
75400;SDS011;63974;47.538;18.972;2023-04-19T12:33:01;4.67;;;3.20;;
75400;SDS011;63974;47.538;18.972;2023-04-19T12:36:05;5.07;;;3.17;;
75400;SDS011;63974;47.538;18.972;2023-04-19T12:39:08;4.57;;;3.28;;
75400;SDS011;63974;47.538;18.972;2023-04-19T12:42:11;4.10;;;3.00;;
75400;SDS011;63974;47.538;18.972;2023-04-19T12:45:14;6.30;;;3.05;;
75400;SDS011;63974;47.538;18.972;2023-04-19T12:48:17;6.63;;;3.60;;
75400;SDS011;63974;47.538;18.972;2023-04-19T12:51:20;3.50;;;2.85;;
75400;SDS011;63974;47.538;18.972;2023-04-19T12:54:23;3.35;;;2.35;;
75400;SDS011;63974;47.538;18.972;2023-04-19T12:57:26;5.80;;;3.88;;
75400;SDS011;63974;47.538;18.972;2023-04-19T13:00:29;5.03;;;3.50;;
75400;SDS011;63974;47.538;18.972;2023-04-19T13:03:32;5.23;;;3.73;;
75400;SDS011;63974;47.538;18.972;2023-04-19T13:06:38;5.95;;;3.88;;
75400;SDS011;63974;47.538;18.972;2023-04-19T13:09:41;6.35;;;4.32;;
75400;SDS011;63974;47.538;18.972;2023-04-19T13:12:44;5.35;;;4.20;;
75400;SDS011;63974;47.538;18.972;2023-04-19T13:15:46;6.22;;;4.43;;
75400;SDS011;63974;47.538;18.972;2023-04-19T13:18:49;6.47;;;4.40;;
75400;SDS011;63974;47.538;18.972;2023-04-19T13:21:54;6.82;;;4.60;;
75400;SDS011;63974;47.538;18.972;2023-04-19T13:24:57;8.05;;;4.68;;
75400;SDS011;63974;47.538;18.972;2023-04-19T13:27:59;5.85;;;4.75;;
75400;SDS011;63974;47.538;18.972;2023-04-19T13:31:03;5.47;;;4.07;;
75400;SDS011;63974;47.538;18.972;2023-04-19T13:34:07;5.47;;;4.00;;
75400;SDS011;63974;47.538;18.972;2023-04-19T13:37:09;5.43;;;4.25;;
75400;SDS011;63974;47.538;18.972;2023-04-19T13:40:12;5.03;;;3.80;;
75400;SDS011;63974;47.538;18.972;2023-04-19T13:43:21;5.55;;;4.10;;
75400;SDS011;63974;47.538;18.972;2023-04-19T13:46:24;4.38;;;3.92;;
75400;SDS011;63974;47.538;18.972;2023-04-19T13:49:27;7.53;;;4.30;;
75400;SDS011;63974;47.538;18.972;2023-04-19T13:52:29;25.13;;;10.35;;
75400;SDS011;63974;47.538;18.972;2023-04-19T13:55:32;13.95;;;6.65;;
75400;SDS011;63974;47.538;18.972;2023-04-19T13:58:35;7.85;;;5.03;;
75400;SDS011;63974;47.538;18.972;2023-04-19T14:01:39;8.93;;;4.43;;
75400;SDS011;63974;47.538;18.972;2023-04-19T14:04:42;5.03;;;4.00;;
75400;SDS011;63974;47.538;18.972;2023-04-19T14:07:45;7.93;;;4.40;;
75400;SDS011;63974;47.538;18.972;2023-04-19T14:10:48;7.85;;;6.25;;
75400;SDS011;63974;47.538;18.972;2023-04-19T14:13:52;4.95;;;3.90;;
75400;SDS011;63974;47.538;18.972;2023-04-19T14:16:55;6.10;;;5.00;;
75400;SDS011;63974;47.538;18.972;2023-04-19T14:19:58;9.27;;;6.23;;
75400;SDS011;63974;47.538;18.972;2023-04-19T14:23:00;7.95;;;5.55;;
75400;SDS011;63974;47.538;18.972;2023-04-19T14:26:03;8.55;;;5.75;;
75400;SDS011;63974;47.538;18.972;2023-04-19T14:29:06;9.05;;;6.03;;
75400;SDS011;63974;47.538;18.972;2023-04-19T14:32:09;11.10;;;7.47;;
75400;SDS011;63974;47.538;18.972;2023-04-19T14:35:27;10.83;;;7.13;;
75400;SDS011;63974;47.538;18.972;2023-04-19T14:38:30;12.35;;;8.60;;
75400;SDS011;63974;47.538;18.972;2023-04-19T14:41:34;30.63;;;17.80;;
75400;SDS011;63974;47.538;18.972;2023-04-19T14:44:37;16.63;;;11.65;;
75400;SDS011;63974;47.538;18.972;2023-04-19T14:47:39;12.98;;;10.13;;
75400;SDS011;63974;47.538;18.972;2023-04-19T14:50:42;11.00;;;6.77;;
75400;SDS011;63974;47.538;18.972;2023-04-19T14:53:45;10.68;;;6.60;;
75400;SDS011;63974;47.538;18.972;2023-04-19T14:56:48;10.70;;;6.65;;
75400;SDS011;63974;47.538;18.972;2023-04-19T14:59:54;10.77;;;5.80;;
75400;SDS011;63974;47.538;18.972;2023-04-19T15:03:02;6.43;;;4.93;;
75400;SDS011;63974;47.538;18.972;2023-04-19T15:06:06;6.93;;;4.87;;
75400;SDS011;63974;47.538;18.972;2023-04-19T15:09:10;7.28;;;4.72;;
75400;SDS011;63974;47.538;18.972;2023-04-19T15:12:13;8.70;;;5.10;;
75400;SDS011;63974;47.538;18.972;2023-04-19T15:15:16;9.23;;;5.50;;
75400;SDS011;63974;47.538;18.972;2023-04-19T15:18:19;7.50;;;4.35;;
75400;SDS011;63974;47.538;18.972;2023-04-19T15:21:24;7.97;;;5.40;;
75400;SDS011;63974;47.538;18.972;2023-04-19T15:24:26;8.45;;;5.22;;
75400;SDS011;63974;47.538;18.972;2023-04-19T15:27:29;6.20;;;4.65;;
75400;SDS011;63974;47.538;18.972;2023-04-19T15:30:32;7.93;;;4.78;;
75400;SDS011;63974;47.538;18.972;2023-04-19T15:33:35;8.60;;;5.93;;
75400;SDS011;63974;47.538;18.972;2023-04-19T15:36:39;5.83;;;4.80;;
75400;SDS011;63974;47.538;18.972;2023-04-19T15:39:42;7.50;;;5.35;;
75400;SDS011;63974;47.538;18.972;2023-04-19T15:42:45;6.07;;;5.05;;
75400;SDS011;63974;47.538;18.972;2023-04-19T15:45:48;7.57;;;5.43;;
75400;SDS011;63974;47.538;18.972;2023-04-19T15:48:50;7.40;;;5.00;;
75400;SDS011;63974;47.538;18.972;2023-04-19T15:51:54;6.17;;;5.07;;
75400;SDS011;63974;47.538;18.972;2023-04-19T15:54:56;6.63;;;4.93;;
75400;SDS011;63974;47.538;18.972;2023-04-19T15:57:59;8.57;;;6.07;;
75400;SDS011;63974;47.538;18.972;2023-04-19T16:01:02;8.38;;;6.13;;
75400;SDS011;63974;47.538;18.972;2023-04-19T16:04:05;8.55;;;6.10;;
75400;SDS011;63974;47.538;18.972;2023-04-19T16:07:08;6.40;;;5.00;;
75400;SDS011;63974;47.538;18.972;2023-04-19T16:10:11;8.05;;;5.70;;
75400;SDS011;63974;47.538;18.972;2023-04-19T16:13:15;8.63;;;4.90;;
75400;SDS011;63974;47.538;18.972;2023-04-19T16:16:18;7.45;;;6.03;;
75400;SDS011;63974;47.538;18.972;2023-04-19T16:19:21;7.72;;;5.28;;
75400;SDS011;63974;47.538;18.972;2023-04-19T16:22:24;10.80;;;5.13;;
75400;SDS011;63974;47.538;18.972;2023-04-19T16:25:30;6.97;;;4.72;;
75400;SDS011;63974;47.538;18.972;2023-04-19T16:28:33;6.60;;;4.45;;
75400;SDS011;63974;47.538;18.972;2023-04-19T16:31:37;6.13;;;4.28;;
75400;SDS011;63974;47.538;18.972;2023-04-19T16:34:40;10.00;;;5.90;;
75400;SDS011;63974;47.538;18.972;2023-04-19T16:37:42;10.87;;;5.93;;
75400;SDS011;63974;47.538;18.972;2023-04-19T16:40:45;9.02;;;5.90;;
75400;SDS011;63974;47.538;18.972;2023-04-19T16:43:50;10.60;;;7.07;;
75400;SDS011;63974;47.538;18.972;2023-04-19T16:46:52;12.95;;;7.82;;
75400;SDS011;63974;47.538;18.972;2023-04-19T16:49:56;13.23;;;7.95;;
75400;SDS011;63974;47.538;18.972;2023-04-19T16:52:59;12.50;;;7.77;;
75400;SDS011;63974;47.538;18.972;2023-04-19T16:56:02;12.38;;;6.90;;
75400;SDS011;63974;47.538;18.972;2023-04-19T16:59:05;11.68;;;6.97;;
75400;SDS011;63974;47.538;18.972;2023-04-19T17:02:08;13.15;;;7.60;;
75400;SDS011;63974;47.538;18.972;2023-04-19T17:05:13;13.10;;;7.57;;
75400;SDS011;63974;47.538;18.972;2023-04-19T17:08:17;14.93;;;7.67;;
75400;SDS011;63974;47.538;18.972;2023-04-19T17:11:20;15.95;;;8.25;;
75400;SDS011;63974;47.538;18.972;2023-04-19T17:14:22;11.63;;;7.50;;
75400;SDS011;63974;47.538;18.972;2023-04-19T17:17:25;14.90;;;8.27;;
75400;SDS011;63974;47.538;18.972;2023-04-19T17:20:28;13.02;;;7.63;;
75400;SDS011;63974;47.538;18.972;2023-04-19T17:23:31;14.13;;;7.87;;
75400;SDS011;63974;47.538;18.972;2023-04-19T17:26:34;22.33;;;9.88;;
75400;SDS011;63974;47.538;18.972;2023-04-19T17:29:37;21.13;;;10.68;;
75400;SDS011;63974;47.538;18.972;2023-04-19T17:32:40;19.65;;;11.40;;
75400;SDS011;63974;47.538;18.972;2023-04-19T17:35:43;24.48;;;12.68;;
75400;SDS011;63974;47.538;18.972;2023-04-19T17:38:46;21.10;;;11.67;;
75400;SDS011;63974;47.538;18.972;2023-04-19T17:41:49;19.55;;;10.52;;
75400;SDS011;63974;47.538;18.972;2023-04-19T17:44:52;16.77;;;10.63;;
75400;SDS011;63974;47.538;18.972;2023-04-19T17:47:55;18.77;;;10.25;;
75400;SDS011;63974;47.538;18.972;2023-04-19T17:50:58;19.95;;;11.25;;
75400;SDS011;63974;47.538;18.972;2023-04-19T17:54:02;20.90;;;10.57;;
75400;SDS011;63974;47.538;18.972;2023-04-19T17:57:05;20.80;;;12.02;;
75400;SDS011;63974;47.538;18.972;2023-04-19T18:00:13;19.75;;;11.23;;
75400;SDS011;63974;47.538;18.972;2023-04-19T18:03:17;20.42;;;11.38;;
75400;SDS011;63974;47.538;18.972;2023-04-19T18:06:21;19.00;;;11.75;;
75400;SDS011;63974;47.538;18.972;2023-04-19T18:09:25;18.63;;;10.43;;
75400;SDS011;63974;47.538;18.972;2023-04-19T18:12:29;19.23;;;10.38;;
75400;SDS011;63974;47.538;18.972;2023-04-19T18:15:31;24.50;;;12.77;;
75400;SDS011;63974;47.538;18.972;2023-04-19T18:18:35;21.48;;;12.05;;
75400;SDS011;63974;47.538;18.972;2023-04-19T18:21:38;22.50;;;12.50;;
75400;SDS011;63974;47.538;18.972;2023-04-19T18:24:41;19.97;;;12.07;;
75400;SDS011;63974;47.538;18.972;2023-04-19T18:27:47;32.13;;;17.70;;